Terminal Aerodrome Forecast
Issued by NWS Rapid City, SD

Home | Current Version | Previous Version | Graphics & Text | Print | Product List | Glossary On
Versions: 1 2 3 4 5 6 7 8 9 10 11 12 13 14 15 16 17
000
FTUS43 KUNR 291120
TAFRAP
TAF
KRAP 291120Z 2912/3012 VRB05KT P6SM BKN100
      TEMPO 2912/2913 30015G25KT -TSRA BKN050CB
     FM291700 VRB06KT P6SM SCT250=

USA.gov is the U.S. government's official web portal to all federal, state and local government web resources and services.